createdAt,value
2019-03-23T00:00:40.490Z,9.00
2019-03-23T00:03:09.983Z,9.00
2019-03-23T00:05:39.429Z,9.00
2019-03-23T00:08:08.908Z,9.00
2019-03-23T00:10:38.430Z,9.00
2019-03-23T00:13:07.999Z,9.00
2019-03-23T00:15:37.416Z,9.00
2019-03-23T00:18:06.861Z,9.00
2019-03-23T00:20:36.665Z,9.00
2019-03-23T00:23:06.255Z,9.00
2019-03-23T00:25:35.941Z,8.90
2019-03-23T00:28:05.903Z,9.00
2019-03-23T00:30:35.332Z,9.00
2019-03-23T00:33:04.823Z,9.00
2019-03-23T00:35:34.304Z,9.00
2019-03-23T00:38:03.731Z,9.00
2019-03-23T00:40:33.170Z,9.00
2019-03-23T00:43:02.592Z,9.00
2019-03-23T00:45:32.008Z,9.00
2019-03-23T00:48:01.432Z,9.00
2019-03-23T00:50:30.860Z,9.00
2019-03-23T00:53:00.361Z,9.00
2019-03-23T00:55:29.807Z,9.00
2019-03-23T00:57:59.231Z,9.00
2019-03-23T01:00:28.937Z,9.00
2019-03-23T01:02:58.356Z,9.00
2019-03-23T01:05:27.804Z,9.00
2019-03-23T01:07:57.254Z,9.00
2019-03-23T01:10:27.001Z,9.00
2019-03-23T01:12:56.445Z,9.00
2019-03-23T01:15:25.876Z,9.00
2019-03-23T01:17:55.328Z,9.00
2019-03-23T01:20:24.748Z,9.00
2019-03-23T01:22:54.457Z,9.00
2019-03-23T01:25:23.873Z,9.00
2019-03-23T01:27:53.313Z,9.00
2019-03-23T01:30:22.767Z,9.10
2019-03-23T01:32:52.180Z,9.00
2019-03-23T01:35:21.924Z,9.00
2019-03-23T01:37:51.353Z,9.00
2019-03-23T01:40:21.124Z,9.00
2019-03-23T01:42:50.569Z,9.00
2019-03-23T01:45:20.065Z,9.00
2019-03-23T01:47:49.527Z,9.00
2019-03-23T01:50:19.031Z,9.00
2019-03-23T01:52:48.437Z,9.00
2019-03-23T01:55:17.964Z,9.00
2019-03-23T01:57:47.370Z,9.00
2019-03-23T02:00:16.878Z,9.00
2019-03-23T02:02:47.607Z,9.10
2019-03-23T02:05:17.160Z,9.00
2019-03-23T02:07:46.584Z,9.00
2019-03-23T02:10:17.097Z,9.00
2019-03-23T02:12:46.525Z,9.00
2019-03-23T02:15:17.047Z,9.00
2019-03-23T02:17:46.519Z,9.00
2019-03-23T02:20:16.260Z,9.00
2019-03-23T02:22:45.670Z,9.00
2019-03-23T02:25:15.191Z,9.00
2019-03-23T02:27:44.628Z,9.00
2019-03-23T02:30:14.607Z,8.90
2019-03-23T02:32:44.066Z,8.90
2019-03-23T02:35:13.595Z,9.00
2019-03-23T02:37:43.037Z,8.90
2019-03-23T02:40:12.703Z,8.90
2019-03-23T02:42:42.167Z,8.90
2019-03-23T02:45:13.084Z,8.90
2019-03-23T02:47:42.574Z,8.90
2019-03-23T02:50:12.352Z,8.90
2019-03-23T02:52:42.090Z,8.90
2019-03-23T02:55:12.118Z,8.90
2019-03-23T02:57:41.533Z,8.90
2019-03-23T03:00:16.330Z,8.90
2019-03-23T03:02:45.836Z,8.80
2019-03-23T03:05:15.451Z,8.80
2019-03-23T03:07:44.893Z,8.80
2019-03-23T03:10:27.655Z,8.80
2019-03-23T03:12:57.091Z,8.80
2019-03-23T03:15:26.524Z,8.80
2019-03-23T03:17:55.941Z,8.80
2019-03-23T03:20:25.393Z,8.80
2019-03-23T03:22:54.795Z,8.80
2019-03-23T03:25:24.243Z,8.80
2019-03-23T03:27:53.662Z,8.90
2019-03-23T03:30:23.117Z,8.90
2019-03-23T03:32:52.607Z,8.90
2019-03-23T03:35:22.037Z,8.90
2019-03-23T03:37:56.805Z,8.90
2019-03-23T03:40:22.629Z,8.90
2019-03-23T03:42:52.102Z,8.90
2019-03-23T03:45:27.577Z,8.90
2019-03-23T03:47:57.175Z,8.90
2019-03-23T03:50:26.637Z,8.80
2019-03-23T03:52:56.480Z,8.90
2019-03-23T03:55:25.927Z,8.90
2019-03-23T03:57:55.362Z,8.90
2019-03-23T04:00:24.824Z,8.90
2019-03-23T04:02:54.292Z,8.90
2019-03-23T04:05:23.694Z,8.90
2019-03-23T04:07:53.147Z,8.90
2019-03-23T04:10:22.597Z,8.90
2019-03-23T04:12:52.024Z,8.90
2019-03-23T04:15:21.445Z,8.90
2019-03-23T04:17:50.902Z,8.90
2019-03-23T04:20:20.333Z,8.90
2019-03-23T04:22:49.899Z,8.90
2019-03-23T04:25:19.349Z,8.90
2019-03-23T04:27:49.274Z,8.90
2019-03-23T04:30:18.768Z,8.90
2019-03-23T04:32:48.291Z,8.90
2019-03-23T04:35:17.708Z,8.90
2019-03-23T04:37:47.141Z,8.90
2019-03-23T04:40:16.699Z,8.90
2019-03-23T04:42:46.127Z,8.90
2019-03-23T04:45:16.187Z,8.90
2019-03-23T04:47:45.617Z,8.90
2019-03-23T04:50:15.221Z,8.90
2019-03-23T04:52:44.648Z,8.90
2019-03-23T04:55:14.617Z,8.90
2019-03-23T04:57:44.129Z,8.90
2019-03-23T05:00:19.926Z,8.90
2019-03-23T05:02:49.378Z,8.90
2019-03-23T05:05:18.866Z,8.90
2019-03-23T05:07:48.312Z,8.90
2019-03-23T05:10:17.821Z,8.90
2019-03-23T05:12:47.324Z,8.90
2019-03-23T05:15:16.756Z,8.90
2019-03-23T05:17:46.195Z,8.90
2019-03-23T05:20:31.042Z,8.90
2019-03-23T05:23:00.521Z,8.80
2019-03-23T05:25:30.869Z,8.80
2019-03-23T05:28:00.339Z,8.90
2019-03-23T05:30:29.824Z,8.90
2019-03-23T05:32:59.268Z,8.90
2019-03-23T05:35:28.685Z,8.90
2019-03-23T05:37:58.110Z,8.90
2019-03-23T05:40:27.539Z,8.90
2019-03-23T05:42:57.187Z,8.90
2019-03-23T05:45:26.641Z,9.00
2019-03-23T05:47:56.057Z,9.00
2019-03-23T05:50:25.777Z,9.00
2019-03-23T05:52:55.197Z,9.00
2019-03-23T05:55:24.684Z,9.00
2019-03-23T05:57:54.119Z,9.00
2019-03-23T06:00:23.630Z,9.00
2019-03-23T06:02:53.122Z,9.00
2019-03-23T06:05:24.601Z,9.00
2019-03-23T06:07:53.704Z,9.00
2019-03-23T06:10:23.166Z,9.00
2019-03-23T06:12:52.577Z,9.00
2019-03-23T06:15:22.039Z,9.10
2019-03-23T06:17:51.535Z,9.10
2019-03-23T06:20:20.966Z,9.10
2019-03-23T06:22:50.399Z,9.10
2019-03-23T06:25:19.832Z,9.10
2019-03-23T06:27:49.336Z,9.20
2019-03-23T06:30:18.830Z,9.10
2019-03-23T06:32:48.255Z,9.10
2019-03-23T06:35:17.713Z,9.20
2019-03-23T06:37:47.137Z,9.20
2019-03-23T06:40:16.714Z,9.20
2019-03-23T06:42:46.141Z,9.30
2019-03-23T06:45:16.024Z,9.30
2019-03-23T06:47:45.465Z,9.30
2019-03-23T06:50:15.023Z,9.30
2019-03-23T06:52:44.821Z,9.40
2019-03-23T06:55:14.320Z,9.40
2019-03-23T06:57:43.766Z,9.50
2019-03-23T07:00:16.606Z,9.50
2019-03-23T07:02:46.109Z,9.50
2019-03-23T07:05:15.889Z,9.40
2019-03-23T07:07:45.316Z,9.50
2019-03-23T07:10:15.313Z,9.50
2019-03-23T07:12:44.806Z,9.50
2019-03-23T07:15:19.963Z,9.50
2019-03-23T07:17:45.826Z,9.50
2019-03-23T07:20:15.698Z,9.60
2019-03-23T07:22:45.167Z,9.60
2019-03-23T07:25:14.774Z,9.60
2019-03-23T07:27:44.292Z,9.60
2019-03-23T07:30:16.637Z,9.70
2019-03-23T07:32:47.407Z,9.70
2019-03-23T07:35:16.908Z,9.70
2019-03-23T07:37:46.355Z,9.70
2019-03-23T07:40:16.198Z,9.80
2019-03-23T07:42:45.624Z,9.80
2019-03-23T07:45:16.316Z,9.90
2019-03-23T07:47:45.739Z,9.90
2019-03-23T07:50:15.973Z,10.00
2019-03-23T07:52:45.656Z,10.00
2019-03-23T07:55:17.254Z,10.00
2019-03-23T07:57:46.953Z,10.00
2019-03-23T08:00:22.063Z,10.00
2019-03-23T08:02:51.562Z,10.10
2019-03-23T08:05:21.457Z,10.10
2019-03-23T08:07:51.255Z,10.10
2019-03-23T08:10:30.080Z,10.10
2019-03-23T08:12:59.815Z,10.20
2019-03-23T08:15:29.582Z,10.20
2019-03-23T08:17:59.423Z,10.30
2019-03-23T08:20:28.928Z,10.40
2019-03-23T08:22:58.372Z,10.40
2019-03-23T08:25:27.882Z,10.40
2019-03-23T08:27:57.431Z,10.40
2019-03-23T08:30:26.860Z,10.40
2019-03-23T08:32:56.291Z,10.50
2019-03-23T08:35:26.031Z,10.50
2019-03-23T08:37:55.479Z,10.60
2019-03-23T08:40:24.890Z,10.70
2019-03-23T08:42:54.328Z,10.70
2019-03-23T08:45:23.758Z,10.70
2019-03-23T08:47:53.279Z,10.70
2019-03-23T08:50:22.722Z,10.80
2019-03-23T08:52:52.167Z,10.80
2019-03-23T08:55:22.092Z,10.80
2019-03-23T08:57:51.608Z,10.80
2019-03-23T09:00:21.038Z,10.90
2019-03-23T09:02:50.751Z,10.90
2019-03-23T09:05:20.203Z,10.90
2019-03-23T09:07:49.627Z,10.90
2019-03-23T09:10:19.058Z,11.00
2019-03-23T09:12:48.488Z,11.00
2019-03-23T09:15:17.983Z,11.10
2019-03-23T09:17:47.832Z,11.20
2019-03-23T09:20:17.259Z,11.20
2019-03-23T09:22:46.680Z,11.40
2019-03-23T09:25:16.193Z,11.30
2019-03-23T09:27:45.612Z,11.30
2019-03-23T09:30:15.300Z,11.40
2019-03-23T09:32:44.726Z,11.30
2019-03-23T09:35:14.223Z,11.40
2019-03-23T09:37:43.663Z,11.40
2019-03-23T09:40:13.339Z,11.50
2019-03-23T09:42:42.767Z,11.60
2019-03-23T09:45:14.175Z,11.70
2019-03-23T09:47:43.522Z,11.70
2019-03-23T09:50:13.206Z,11.70
2019-03-23T09:52:44.231Z,11.70
2019-03-23T09:55:13.734Z,11.80
2019-03-23T09:57:43.220Z,11.70
2019-03-23T10:00:13.716Z,11.70
2019-03-23T10:02:43.218Z,11.70
2019-03-23T10:05:12.660Z,11.70
2019-03-23T10:07:42.371Z,11.80
2019-03-23T10:10:21.244Z,11.90
2019-03-23T10:12:43.092Z,11.80
2019-03-23T10:15:12.607Z,11.90
2019-03-23T10:17:42.032Z,12.00
2019-03-23T10:20:11.606Z,12.00
2019-03-23T10:22:41.072Z,12.00
2019-03-23T10:25:10.654Z,12.00
2019-03-23T10:27:40.075Z,12.10
2019-03-23T10:30:11.903Z,12.10
2019-03-23T10:32:41.334Z,12.10
2019-03-23T10:35:12.199Z,12.00
2019-03-23T10:37:41.665Z,12.00
2019-03-23T10:40:12.087Z,12.00
2019-03-23T10:42:43.328Z,12.00
2019-03-23T10:45:14.332Z,12.10
2019-03-23T10:47:43.850Z,12.20
2019-03-23T10:50:14.327Z,12.40
2019-03-23T10:52:43.761Z,12.50
2019-03-23T10:55:13.196Z,12.60
2019-03-23T10:57:42.627Z,12.40
2019-03-23T11:00:15.167Z,12.40
2019-03-23T11:02:44.598Z,12.50
2019-03-23T11:05:14.191Z,12.50
2019-03-23T11:07:43.907Z,12.60
2019-03-23T11:10:14.679Z,12.70
2019-03-23T11:12:44.152Z,12.90
2019-03-23T11:15:13.834Z,13.00
2019-03-23T11:17:43.934Z,13.10
2019-03-23T11:20:14.470Z,13.00
2019-03-23T11:22:44.696Z,13.20
2019-03-23T11:25:16.693Z,13.30
2019-03-23T11:27:46.872Z,13.40
2019-03-23T11:30:17.375Z,13.40
2019-03-23T11:32:47.305Z,13.60
2019-03-23T11:35:17.326Z,13.60
2019-03-23T11:37:47.147Z,13.60
2019-03-23T11:40:16.969Z,13.60
2019-03-23T11:42:50.267Z,13.50
2019-03-23T11:45:17.558Z,13.50
2019-03-23T11:47:46.998Z,13.50
2019-03-23T11:50:16.417Z,13.30
2019-03-23T11:52:47.078Z,13.30
2019-03-23T11:55:16.659Z,13.30
2019-03-23T11:57:46.164Z,13.30
2019-03-23T12:00:16.541Z,13.20
2019-03-23T12:02:46.074Z,13.30
2019-03-23T12:05:15.618Z,13.40
2019-03-23T12:07:45.124Z,13.40
2019-03-23T12:10:15.201Z,13.70
2019-03-23T12:12:44.662Z,13.90
2019-03-23T12:15:14.942Z,14.00
2019-03-23T12:17:44.357Z,14.00
2019-03-23T12:20:14.856Z,14.10
2019-03-23T12:22:44.266Z,14.20
2019-03-23T12:25:13.756Z,14.40
2019-03-23T12:27:43.285Z,14.50
2019-03-23T12:30:16.445Z,14.50
2019-03-23T12:32:45.962Z,14.70
2019-03-23T12:35:15.440Z,14.80
2019-03-23T12:37:45.216Z,14.90
2019-03-23T12:40:14.892Z,15.10
2019-03-23T12:42:44.317Z,15.20
2019-03-23T12:45:13.971Z,15.20
2019-03-23T12:47:43.419Z,15.20
2019-03-23T12:50:13.243Z,15.30
2019-03-23T12:52:42.931Z,15.40
2019-03-23T12:55:12.439Z,15.40
2019-03-23T12:57:41.870Z,15.40
2019-03-23T13:00:16.429Z,15.50
2019-03-23T13:02:45.874Z,15.60
2019-03-23T13:05:15.435Z,15.50
2019-03-23T13:07:44.862Z,15.40
2019-03-23T13:10:15.811Z,15.40
2019-03-23T13:12:45.229Z,15.40
2019-03-23T13:15:16.719Z,15.20
2019-03-23T13:17:46.413Z,15.10
2019-03-23T13:20:16.336Z,14.80
2019-03-23T13:22:45.795Z,14.80
2019-03-23T13:25:15.228Z,14.70
2019-03-23T13:27:44.669Z,14.70
2019-03-23T13:30:18.749Z,14.60
2019-03-23T13:32:48.286Z,14.50
2019-03-23T13:35:18.008Z,14.50
2019-03-23T13:37:47.438Z,14.40
2019-03-23T13:40:16.949Z,14.30
2019-03-23T13:42:46.467Z,14.10
2019-03-23T13:45:16.061Z,14.00
2019-03-23T13:47:45.496Z,13.80
2019-03-23T13:50:19.623Z,13.60
2019-03-23T13:52:49.080Z,13.60
2019-03-23T13:55:33.825Z,13.50
2019-03-23T13:58:12.328Z,13.50
2019-03-23T14:00:41.925Z,13.50
2019-03-23T14:03:11.580Z,13.50
2019-03-23T14:05:41.016Z,13.40
2019-03-23T14:08:10.816Z,13.40
2019-03-23T14:10:40.402Z,13.40
2019-03-23T14:13:09.846Z,13.30
2019-03-23T14:15:39.390Z,13.30
2019-03-23T14:18:08.825Z,13.20
2019-03-23T14:20:38.254Z,13.00
2019-03-23T14:23:07.692Z,12.90
2019-03-23T14:25:37.117Z,12.70
2019-03-23T14:28:08.218Z,12.60
2019-03-23T14:30:37.795Z,12.50
2019-03-23T14:33:07.240Z,12.50
2019-03-23T14:35:36.740Z,12.50
2019-03-23T14:38:06.240Z,12.50
2019-03-23T14:40:35.776Z,12.50
2019-03-23T14:43:05.199Z,12.40
2019-03-23T14:45:34.674Z,12.40
2019-03-23T14:48:04.098Z,12.40
2019-03-23T14:50:33.515Z,12.40
2019-03-23T14:53:03.033Z,12.40
2019-03-23T14:55:32.466Z,12.30
2019-03-23T14:58:01.933Z,12.20
2019-03-23T15:00:33.363Z,12.10
2019-03-23T15:03:02.996Z,12.00
2019-03-23T15:05:32.427Z,11.90
2019-03-23T15:08:01.861Z,11.90
2019-03-23T15:10:31.299Z,11.90
2019-03-23T15:13:00.797Z,11.90
2019-03-23T15:15:30.295Z,11.90
2019-03-23T15:17:59.724Z,11.90
2019-03-23T15:20:29.139Z,11.80
2019-03-23T15:22:58.639Z,11.80
2019-03-23T15:25:28.052Z,11.90
2019-03-23T15:27:57.483Z,11.90
2019-03-23T15:30:27.070Z,11.90
2019-03-23T15:32:56.494Z,11.90
2019-03-23T15:35:26.218Z,12.00
2019-03-23T15:37:55.626Z,12.00
2019-03-23T15:40:25.114Z,12.10
2019-03-23T15:42:54.607Z,12.10
2019-03-23T15:45:24.091Z,12.20
2019-03-23T15:47:53.537Z,12.10
2019-03-23T15:50:23.339Z,12.10
2019-03-23T15:52:52.806Z,12.00
2019-03-23T15:55:22.316Z,12.00
2019-03-23T15:57:51.830Z,11.90
2019-03-23T16:00:21.422Z,11.90
2019-03-23T16:02:50.928Z,11.80
2019-03-23T16:05:20.439Z,11.90
2019-03-23T16:07:49.855Z,11.90
2019-03-23T16:10:19.357Z,11.90
2019-03-23T16:12:48.794Z,11.90
2019-03-23T16:15:18.371Z,11.90
2019-03-23T16:17:47.899Z,11.90
2019-03-23T16:20:18.059Z,11.90
2019-03-23T16:22:47.876Z,11.80
2019-03-23T16:25:17.358Z,11.80
2019-03-23T16:27:46.846Z,11.70
2019-03-23T16:30:21.020Z,11.70
2019-03-23T16:32:50.809Z,11.70
2019-03-23T16:35:20.241Z,11.70
2019-03-23T16:37:49.931Z,11.70
2019-03-23T16:40:19.519Z,11.60
2019-03-23T16:42:49.003Z,11.60
2019-03-23T16:45:18.422Z,11.50
2019-03-23T16:47:47.859Z,11.50
2019-03-23T16:50:17.276Z,11.50
2019-03-23T16:52:47.014Z,11.50
2019-03-23T16:55:16.464Z,11.40
2019-03-23T16:57:45.867Z,11.40
2019-03-23T17:00:18.289Z,11.40
2019-03-23T17:02:48.106Z,11.30
2019-03-23T17:05:19.179Z,11.30
2019-03-23T17:07:48.665Z,11.30
2019-03-23T17:10:18.191Z,11.30
2019-03-23T17:12:55.309Z,11.30
2019-03-23T17:15:20.399Z,11.30
2019-03-23T17:17:49.930Z,11.20
2019-03-23T17:20:19.374Z,11.30
2019-03-23T17:22:49.175Z,11.30
2019-03-23T17:25:18.683Z,11.20
2019-03-23T17:27:48.180Z,11.20
2019-03-23T17:30:17.710Z,11.20
2019-03-23T17:32:47.141Z,11.20
2019-03-23T17:35:16.578Z,11.10
2019-03-23T17:37:46.108Z,11.20
2019-03-23T17:40:15.579Z,11.20
2019-03-23T17:42:45.341Z,11.20
2019-03-23T17:45:17.990Z,11.20
2019-03-23T17:47:47.819Z,11.20
2019-03-23T17:50:17.339Z,11.20
2019-03-23T17:52:48.353Z,11.10
2019-03-23T17:55:17.772Z,11.10
2019-03-23T17:57:47.210Z,11.10
2019-03-23T18:00:16.960Z,11.10
2019-03-23T18:02:46.381Z,11.00
2019-03-23T18:05:15.879Z,11.00
2019-03-23T18:07:45.369Z,11.00
2019-03-23T18:10:15.735Z,10.90
2019-03-23T18:12:45.273Z,10.90
2019-03-23T18:15:14.824Z,10.90
2019-03-23T18:17:44.281Z,10.80
2019-03-23T18:20:13.994Z,10.80
2019-03-23T18:22:46.252Z,10.70
2019-03-23T18:25:15.781Z,10.70
2019-03-23T18:27:45.596Z,10.70
2019-03-23T18:30:25.936Z,10.70
2019-03-23T18:32:55.524Z,10.70
2019-03-23T18:35:24.996Z,10.70
2019-03-23T18:37:54.435Z,10.60
2019-03-23T18:40:24.206Z,10.60
2019-03-23T18:42:53.664Z,10.60
2019-03-23T18:45:23.455Z,10.60
2019-03-23T18:47:52.871Z,10.60
2019-03-23T18:50:22.317Z,10.60
2019-03-23T18:52:52.095Z,10.50
2019-03-23T18:55:21.925Z,10.50
2019-03-23T18:57:51.389Z,10.50
2019-03-23T19:00:42.576Z,10.50
2019-03-23T19:07:21.885Z,10.40
2019-03-23T19:09:51.311Z,10.40
2019-03-23T19:12:20.731Z,10.40
2019-03-23T19:14:50.185Z,10.30
2019-03-23T19:17:19.714Z,10.30
2019-03-23T19:19:49.182Z,10.20
2019-03-23T19:22:18.839Z,10.20
2019-03-23T19:24:48.255Z,10.20
2019-03-23T19:27:17.692Z,10.10
2019-03-23T19:29:47.128Z,10.10
2019-03-23T19:32:16.785Z,10.00
2019-03-23T19:34:46.189Z,10.00
2019-03-23T19:37:15.695Z,10.00
2019-03-23T19:39:45.211Z,10.00
2019-03-23T19:42:14.915Z,9.90
2019-03-23T19:44:44.360Z,9.90
2019-03-23T19:47:13.801Z,9.80
2019-03-23T19:49:43.203Z,9.90
2019-03-23T19:52:12.635Z,9.80
2019-03-23T19:54:42.037Z,9.80
2019-03-23T19:57:11.539Z,9.80
2019-03-23T19:59:40.974Z,9.80
2019-03-23T20:02:10.487Z,9.70
2019-03-23T20:04:39.973Z,9.70
2019-03-23T20:07:09.386Z,9.70
2019-03-23T20:09:38.885Z,9.70
2019-03-23T20:12:08.377Z,9.60
2019-03-23T20:14:37.805Z,9.60
2019-03-23T20:17:07.241Z,9.60
2019-03-23T20:19:36.644Z,9.50
2019-03-23T20:22:06.222Z,9.50
2019-03-23T20:24:35.714Z,9.50
2019-03-23T20:27:05.296Z,9.50
2019-03-23T20:29:34.727Z,9.50
2019-03-23T20:32:04.207Z,9.50
2019-03-23T20:34:33.718Z,9.50
2019-03-23T20:37:03.139Z,9.50
2019-03-23T20:39:32.580Z,9.50
2019-03-23T20:42:02.005Z,9.50
2019-03-23T20:44:31.434Z,9.50
2019-03-23T20:47:01.000Z,9.50
2019-03-23T20:49:30.886Z,9.50
2019-03-23T20:52:00.396Z,9.50
2019-03-23T20:54:30.260Z,9.50
2019-03-23T20:56:59.706Z,9.50
2019-03-23T20:59:29.102Z,9.50
2019-03-23T21:01:58.614Z,9.40
2019-03-23T21:04:28.134Z,9.40
2019-03-23T21:06:57.550Z,9.40
2019-03-23T21:09:26.996Z,9.30
2019-03-23T21:11:56.403Z,9.30
2019-03-23T21:14:25.840Z,9.30
2019-03-23T21:16:55.311Z,9.30
2019-03-23T21:19:24.707Z,9.20
2019-03-23T21:21:54.176Z,9.20
2019-03-23T21:24:23.611Z,9.20
2019-03-23T21:26:53.020Z,9.10
2019-03-23T21:29:22.472Z,9.10
2019-03-23T21:31:51.890Z,9.00
2019-03-23T21:34:21.327Z,9.00
2019-03-23T21:36:50.754Z,9.00
2019-03-23T21:39:20.200Z,9.00
2019-03-23T21:41:49.864Z,9.00
2019-03-23T21:44:19.283Z,8.90
2019-03-23T21:46:49.127Z,8.90
2019-03-23T21:49:18.928Z,8.90
2019-03-23T21:51:48.379Z,8.90
2019-03-23T21:54:17.851Z,8.90
2019-03-23T21:56:47.268Z,8.80
2019-03-23T21:59:16.716Z,8.80
2019-03-23T22:01:46.433Z,8.80
2019-03-23T22:04:15.901Z,8.80
2019-03-23T22:06:45.305Z,8.80
2019-03-23T22:09:14.704Z,8.80
2019-03-23T22:11:44.269Z,8.70
2019-03-23T22:14:13.673Z,8.70
2019-03-23T22:16:43.187Z,8.70
2019-03-23T22:19:12.592Z,8.70
2019-03-23T22:21:42.090Z,8.70
2019-03-23T22:24:11.498Z,8.70
2019-03-23T22:26:40.909Z,8.70
2019-03-23T22:29:10.335Z,8.70
2019-03-23T22:31:39.765Z,8.60
2019-03-23T22:34:09.280Z,8.70
2019-03-23T22:36:38.707Z,8.70
2019-03-23T22:39:08.549Z,8.70
2019-03-23T22:41:37.996Z,8.60
2019-03-23T22:44:07.415Z,8.60
2019-03-23T22:46:36.853Z,8.60
2019-03-23T22:49:06.281Z,8.50
2019-03-23T22:51:35.705Z,8.50
2019-03-23T22:54:05.224Z,8.50
2019-03-23T22:56:34.936Z,8.50
2019-03-23T22:59:04.512Z,8.50
2019-03-23T23:01:34.060Z,8.40
2019-03-23T23:04:03.486Z,8.50
2019-03-23T23:06:32.931Z,8.40
2019-03-23T23:09:02.666Z,8.40
2019-03-23T23:11:32.094Z,8.40
2019-03-23T23:14:01.525Z,8.40
2019-03-23T23:16:31.046Z,8.40
2019-03-23T23:19:00.777Z,8.40
2019-03-23T23:21:30.210Z,8.30
2019-03-23T23:23:59.642Z,8.30
2019-03-23T23:26:29.322Z,8.30
2019-03-23T23:28:58.768Z,8.30
2019-03-23T23:31:28.222Z,8.30
2019-03-23T23:33:57.640Z,8.30
2019-03-23T23:36:29.789Z,8.30
2019-03-23T23:38:59.187Z,8.20
2019-03-23T23:41:28.645Z,8.20
2019-03-23T23:43:58.048Z,8.20
2019-03-23T23:46:27.454Z,8.20
2019-03-23T23:48:56.949Z,8.20
2019-03-23T23:51:26.359Z,8.20
2019-03-23T23:53:55.792Z,8.20
2019-03-23T23:56:25.210Z,8.20
2019-03-23T23:58:54.636Z,8.20
